Time;durP1;ratioP1;P1;durP2;ratioP2;P2;SDS_P1;SDS_P2;PMS_P1;PMS_P2;Temp;Humidity;BMP_temperature;BMP_pressure;BME280_temperature;BME280_humidity;BME280_pressure;Samples;Min_cycle;Max_cycle;Signal;HPM_P1;HPM_P2
2022/12/02 00:01:10;;;;;;;51.58;17.98;;;3.20;99.90;;;;;;5092091;28;20500;-46
2022/12/02 00:03:37;;;;;;;67.43;24.05;;;3.20;99.90;;;;;;5091996;28;20438;-45
2022/12/02 00:06:04;;;;;;;71.65;25.00;;;3.10;99.90;;;;;;5090607;28;20044;-46
2022/12/02 00:08:33;;;;;;;57.35;23.05;;;3.10;99.90;;;;;;5089700;28;20434;-46
2022/12/02 00:11:01;;;;;;;75.25;25.70;;;3.10;99.90;;;;;;5092384;28;20040;-44
2022/12/02 00:13:40;;;;;;;68.25;23.63;;;3.10;99.90;;;;;;5091601;28;20494;-44
2022/12/02 00:16:19;;;;;;;58.47;21.92;;;3.10;99.90;;;;;;5087390;28;20040;-43
2022/12/02 00:18:46;;;;;;;68.30;23.70;;;3.10;99.90;;;;;;5083545;28;20040;-46
2022/12/02 00:21:13;;;;;;;55.83;17.85;;;3.10;99.90;;;;;;5092142;28;20044;-46
2022/12/02 00:23:39;;;;;;;62.03;22.50;;;3.10;99.90;;;;;;5084951;28;20085;-46
2022/12/02 00:26:06;;;;;;;72.10;23.30;;;3.10;99.90;;;;;;5091054;28;20051;-45
2022/12/02 00:28:33;;;;;;;74.60;24.92;;;3.10;99.90;;;;;;5083579;28;20040;-44
2022/12/02 00:31:00;;;;;;;71.95;23.75;;;3.10;99.90;;;;;;5073699;28;20052;-43
2022/12/02 00:33:27;;;;;;;62.25;22.63;;;3.10;99.90;;;;;;5067269;28;20462;-44
2022/12/02 00:35:54;;;;;;;66.90;23.83;;;3.10;99.90;;;;;;5073345;28;20036;-43
2022/12/02 00:38:21;;;;;;;66.20;24.20;;;3.10;99.90;;;;;;5091748;28;20040;-43
2022/12/02 00:40:47;;;;;;;63.20;23.20;;;3.10;99.90;;;;;;5091758;28;20036;-43
2022/12/02 00:48:45;;;;;;;57.35;21.65;;;3.10;99.90;;;;;;5073400;28;20051;-46
2022/12/02 00:51:12;;;;;;;63.55;22.25;;;3.10;99.90;;;;;;5091069;28;20445;-44
2022/12/02 00:53:38;;;;;;;63.13;23.23;;;3.10;99.90;;;;;;5071194;28;20044;-44
2022/12/02 00:56:05;;;;;;;61.38;22.77;;;3.10;99.90;;;;;;5077972;28;20110;-43
2022/12/02 00:58:32;;;;;;;65.82;24.92;;;3.10;99.90;;;;;;5070427;28;20053;-43
2022/12/02 01:00:59;;;;;;;64.57;23.77;;;3.10;99.90;;;;;;5069618;28;20122;-43
2022/12/02 01:03:26;;;;;;;67.20;23.83;;;3.10;99.90;;;;;;5054510;28;20045;-46
2022/12/02 01:05:52;;;;;;;69.90;25.42;;;3.10;99.90;;;;;;5083030;28;20223;-43
2022/12/02 01:08:24;;;;;;;48.65;17.80;;;3.10;99.90;;;;;;5091650;28;20074;-43
2022/12/02 01:10:50;;;;;;;64.40;23.27;;;3.10;99.90;;;;;;5073486;28;20527;-43
2022/12/02 01:13:17;;;;;;;61.38;23.75;;;3.10;99.90;;;;;;5072200;28;20048;-45
2022/12/02 01:15:44;;;;;;;51.10;18.20;;;3.10;99.90;;;;;;5060639;28;20049;-43
2022/12/02 01:18:11;;;;;;;69.88;23.77;;;3.10;99.90;;;;;;5052762;28;20052;-44
2022/12/02 01:20:38;;;;;;;71.32;25.77;;;3.10;99.90;;;;;;5053112;28;20460;-43
2022/12/02 01:23:04;;;;;;;72.93;24.20;;;3.10;99.90;;;;;;5077139;28;20044;-43
2022/12/02 01:25:31;;;;;;;59.58;18.42;;;3.10;99.90;;;;;;5056519;28;20447;-44
2022/12/02 01:27:58;;;;;;;67.18;23.40;;;3.10;99.90;;;;;;5072795;28;20101;-44
2022/12/02 01:30:25;;;;;;;66.90;22.77;;;3.10;99.90;;;;;;5073127;28;20091;-43
2022/12/02 01:32:52;;;;;;;63.83;23.63;;;3.00;99.90;;;;;;5090462;28;20032;-43
2022/12/02 01:35:19;;;;;;;65.88;23.40;;;3.10;99.90;;;;;;5080665;28;20044;-44
2022/12/02 01:37:45;;;;;;;;;;;3.00;99.90;;;;;;5056933;28;20052;-44
2022/12/02 01:40:13;;;;;;;64.93;23.23;;;3.10;99.90;;;;;;5058963;28;19993;-43
2022/12/02 01:42:40;;;;;;;65.05;22.08;;;3.00;99.90;;;;;;5076713;28;20105;-44
2022/12/02 01:45:08;;;;;;;61.42;22.75;;;3.00;99.90;;;;;;5065632;28;20039;-43
2022/12/02 01:47:36;;;;;;;62.55;21.50;;;3.00;99.90;;;;;;5079275;28;20059;-44
2022/12/02 01:50:04;;;;;;;57.70;21.73;;;3.10;99.90;;;;;;5079864;28;20108;-46
2022/12/02 01:52:31;;;;;;;68.80;24.40;;;3.00;99.90;;;;;;5086711;28;20046;-46
2022/12/02 01:54:58;;;;;;;62.40;22.77;;;3.00;99.90;;;;;;5089795;28;20044;-43
2022/12/02 01:57:27;;;;;;;65.78;22.23;;;3.00;99.90;;;;;;5079929;28;20110;-43
2022/12/02 01:59:55;;;;;;;60.15;22.88;;;3.00;99.90;;;;;;5076711;28;20037;-43
2022/12/02 02:02:35;;;;;;;73.57;23.95;;;3.00;99.90;;;;;;5076427;28;20044;-44
2022/12/02 02:05:30;;;;;;;61.42;23.25;;;3.10;99.90;;;;;;5077873;28;20075;-46
2022/12/02 02:08:05;;;;;;;75.13;24.65;;;3.10;99.90;;;;;;5056803;28;20052;-46
2022/12/02 02:10:34;;;;;;;71.78;23.70;;;3.10;99.90;;;;;;5075870;28;20054;-44
2022/12/02 02:13:01;;;;;;;70.28;23.50;;;3.10;99.90;;;;;;5091089;28;20043;-46
2022/12/02 02:15:28;;;;;;;;;;;3.00;99.90;;;;;;5088059;28;20045;-44
2022/12/02 02:17:56;;;;;;;79.07;26.20;;;3.10;99.90;;;;;;5077359;28;19989;-43
2022/12/02 02:20:30;;;;;;;80.60;27.10;;;3.10;99.90;;;;;;5059260;28;20053;-44
2022/12/02 02:23:03;;;;;;;85.97;28.77;;;3.10;99.90;;;;;;5059160;28;20074;-43
2022/12/02 02:25:39;;;;;;;83.60;28.25;;;3.10;99.90;;;;;;5058590;28;20049;-46
2022/12/02 02:28:08;;;;;;;71.15;25.45;;;3.10;99.90;;;;;;5067181;28;20040;-46
2022/12/02 02:30:36;;;;;;;70.75;24.88;;;3.10;99.90;;;;;;5088900;28;20048;-47
2022/12/02 02:33:05;;;;;;;77.10;25.95;;;3.00;99.90;;;;;;5079283;28;20058;-43
2022/12/02 02:35:34;;;;;;;72.47;25.33;;;3.00;99.90;;;;;;5073550;28;20036;-46
2022/12/02 02:38:02;;;;;;;79.30;26.90;;;3.00;99.90;;;;;;5059333;28;20044;-46
2022/12/02 02:40:29;;;;;;;79.72;25.83;;;3.10;99.90;;;;;;5077318;28;20054;-46
2022/12/02 02:43:00;;;;;;;66.82;24.05;;;2.60;99.90;;;;;;5058813;28;20040;-43
2022/12/02 02:45:34;;;;;;;74.55;26.00;;;3.10;99.90;;;;;;5063240;28;20114;-43
2022/12/02 02:48:06;;;;;;;64.28;23.42;;;3.00;99.90;;;;;;5058858;28;20051;-47
2022/12/02 02:50:35;;;;;;;67.40;24.55;;;3.00;99.90;;;;;;5055526;28;20110;-45
2022/12/02 02:53:03;;;;;;;68.40;24.42;;;3.00;99.90;;;;;;5055607;28;20044;-46
2022/12/02 02:55:32;;;;;;;79.15;26.10;;;3.00;99.90;;;;;;5089522;28;20091;-47
2022/12/02 02:58:16;;;;;;;73.15;26.05;;;3.00;99.90;;;;;;5069289;28;20066;-45
2022/12/02 03:01:01;;;;;;;69.45;24.90;;;3.00;99.90;;;;;;5076292;28;20127;-46
2022/12/02 03:03:34;;;;;;;75.88;24.70;;;3.00;99.90;;;;;;5073841;28;20036;-43
2022/12/02 03:06:04;;;;;;;68.85;23.58;;;3.00;99.90;;;;;;5072136;28;20048;-46
2022/12/02 03:08:32;;;;;;;69.10;23.08;;;3.00;99.90;;;;;;5072133;28;20040;-44
2022/12/02 03:11:02;;;;;;;69.82;21.83;;;3.00;99.90;;;;;;5054822;28;20044;-43
2022/12/02 03:13:32;;;;;;;57.58;22.05;;;3.00;99.90;;;;;;5073556;28;20036;-44
2022/12/02 03:16:01;;;;;;;59.88;21.80;;;3.00;99.90;;;;;;5086381;28;20037;-46
2022/12/02 03:18:28;;;;;;;55.88;21.83;;;2.90;99.90;;;;;;5083844;28;20068;-46
2022/12/02 03:20:55;;;;;;;61.40;21.75;;;3.00;99.90;;;;;;5089125;28;20082;-46
2022/12/02 03:23:22;;;;;;;68.47;24.27;;;2.90;99.90;;;;;;5081244;28;20076;-46
2022/12/02 03:25:49;;;;;;;71.20;24.00;;;2.90;99.90;;;;;;5090848;28;20036;-43
2022/12/02 03:28:16;;;;;;;67.15;25.30;;;2.90;99.90;;;;;;5093118;28;20090;-44
2022/12/02 03:30:43;;;;;;;63.25;22.33;;;3.00;99.90;;;;;;5093185;28;20044;-45
2022/12/02 03:33:11;;;;;;;64.53;23.73;;;3.00;99.90;;;;;;5092729;28;20051;-46
2022/12/02 03:35:37;;;;;;;;;;;3.00;99.90;;;;;;5075350;28;20115;-44
2022/12/02 03:38:04;;;;;;;81.53;25.48;;;3.00;99.90;;;;;;5093115;28;20017;-43
2022/12/02 03:40:31;;;;;;;79.55;24.83;;;3.00;99.90;;;;;;5093153;28;20036;-43
2022/12/02 03:42:58;;;;;;;70.45;23.65;;;3.00;99.90;;;;;;5092751;28;20032;-44
2022/12/02 03:45:25;;;;;;;80.03;25.77;;;3.00;99.90;;;;;;5079181;28;20111;-43
2022/12/02 03:47:51;;;;;;;67.00;23.00;;;3.00;99.90;;;;;;5090994;28;20524;-44
2022/12/02 03:50:19;;;;;;;71.20;25.08;;;3.00;99.90;;;;;;5092804;28;20074;-44
2022/12/02 03:52:45;;;;;;;66.78;24.83;;;3.00;99.90;;;;;;5091849;28;20512;-43
2022/12/02 03:55:12;;;;;;;79.97;25.42;;;3.00;99.90;;;;;;5092528;28;20047;-44
2022/12/02 03:57:41;;;;;;;64.53;24.33;;;3.00;99.90;;;;;;5093033;28;20040;-43
2022/12/02 04:00:10;;;;;;;76.70;25.20;;;3.00;99.90;;;;;;5091347;28;20452;-44
2022/12/02 04:02:42;;;;;;;76.55;25.70;;;3.00;99.90;;;;;;5073625;28;20090;-43
2022/12/02 04:05:09;;;;;;;70.13;25.70;;;3.00;99.90;;;;;;5090051;28;20071;-45
2022/12/02 04:07:36;;;;;;;76.15;25.30;;;3.00;99.90;;;;;;5092283;28;20078;-43
2022/12/02 04:10:03;;;;;;;69.32;25.38;;;3.00;99.90;;;;;;5086483;28;20493;-43
2022/12/02 04:12:30;;;;;;;;;;;2.90;99.90;;;;;;5088732;28;20044;-44
2022/12/02 04:14:56;;;;;;;76.97;24.50;;;2.90;99.90;;;;;;5092476;28;19919;-43
2022/12/02 04:17:23;;;;;;;52.55;17.20;;;2.90;99.90;;;;;;5092276;28;20044;-44
2022/12/02 04:19:50;;;;;;;77.38;25.83;;;2.90;99.90;;;;;;5085955;28;20524;-46
2022/12/02 04:22:16;;;;;;;76.13;26.48;;;2.90;99.90;;;;;;5091871;28;20052;-46
2022/12/02 04:24:43;;;;;;;73.40;23.70;;;2.90;99.90;;;;;;5092237;28;20047;-47
2022/12/02 04:27:10;;;;;;;76.65;25.42;;;2.90;99.90;;;;;;5091304;28;20093;-46
2022/12/02 04:29:37;;;;;;;78.30;25.85;;;2.90;99.90;;;;;;5090181;28;20082;-44
2022/12/02 04:32:04;;;;;;;80.13;24.75;;;2.90;99.90;;;;;;5084125;28;20484;-43
2022/12/02 04:34:31;;;;;;;71.18;24.98;;;2.90;99.90;;;;;;5074377;28;20101;-45
2022/12/02 04:36:57;;;;;;;74.20;25.80;;;2.90;99.90;;;;;;5091165;28;20067;-46
2022/12/02 04:39:24;;;;;;;54.25;18.55;;;3.00;99.90;;;;;;5092477;28;20048;-45
2022/12/02 04:41:51;;;;;;;62.40;20.85;;;3.00;99.90;;;;;;5083443;28;20452;-45
2022/12/02 04:44:17;;;;;;;76.43;25.17;;;3.00;99.90;;;;;;5087873;28;20075;-43
2022/12/02 04:46:44;;;;;;;77.82;25.30;;;3.00;99.90;;;;;;5092031;28;20044;-45
2022/12/02 04:49:24;;;;;;;76.70;25.42;;;2.90;99.90;;;;;;5080251;22;20527;-46
2022/12/02 04:55:45;;;;;;;74.65;26.83;;;2.90;99.90;;;;;;5049573;28;20099;-48
2022/12/02 04:58:13;;;;;;;80.88;25.38;;;2.90;99.90;;;;;;5051618;28;20356;-48
2022/12/02 05:00:39;;;;;;;;;;;2.90;99.90;;;;;;5062580;28;20068;-48
2022/12/02 05:03:06;;;;;;;75.88;25.83;;;2.90;99.90;;;;;;5071233;28;19986;-48
2022/12/02 05:05:33;;;;;;;78.78;25.63;;;2.90;99.90;;;;;;5087681;28;20036;-49
2022/12/02 05:07:59;;;;;;;78.07;26.67;;;2.80;99.90;;;;;;5081735;28;20068;-48
2022/12/02 05:10:26;;;;;;;78.07;26.92;;;2.80;99.90;;;;;;5058939;28;20068;-48
2022/12/02 05:12:53;;;;;;;80.63;25.88;;;2.80;99.90;;;;;;5054203;28;20094;-48
2022/12/02 05:15:20;;;;;;;76.30;26.13;;;2.80;99.90;;;;;;5062573;28;20064;-48
2022/12/02 05:17:47;;;;;;;52.25;18.33;;;2.90;99.90;;;;;;5071420;28;20504;-48
2022/12/02 05:20:13;;;;;;;74.60;25.77;;;2.90;99.90;;;;;;5067116;28;20518;-48
2022/12/02 05:22:40;;;;;;;58.50;21.00;;;2.90;99.90;;;;;;5062352;28;20104;-51
2022/12/02 05:25:07;;;;;;;47.85;16.73;;;2.90;99.90;;;;;;5063159;28;20097;-48
2022/12/02 05:27:34;;;;;;;82.85;25.90;;;2.90;99.90;;;;;;5087520;28;20085;-48
2022/12/02 05:30:03;;;;;;;75.05;24.65;;;2.90;99.90;;;;;;5074962;28;20048;-48
2022/12/02 05:32:30;;;;;;;68.82;24.63;;;2.90;99.90;;;;;;5090779;28;20040;-48
2022/12/02 05:34:56;;;;;;;69.57;25.13;;;2.90;99.90;;;;;;5085053;28;20044;-49
2022/12/02 05:37:23;;;;;;;70.15;25.88;;;3.00;99.90;;;;;;5078224;28;20044;-49
2022/12/02 05:39:51;;;;;;;82.25;26.35;;;2.90;99.90;;;;;;5077873;28;20044;-50
2022/12/02 05:42:18;;;;;;;80.25;25.80;;;3.00;99.90;;;;;;5082280;28;20407;-48
2022/12/02 05:44:45;;;;;;;61.60;21.48;;;3.00;99.90;;;;;;5089875;28;20064;-49
2022/12/02 05:47:14;;;;;;;71.47;23.60;;;3.00;99.90;;;;;;5071807;28;20119;-47
2022/12/02 05:49:42;;;;;;;70.30;23.83;;;3.00;99.90;;;;;;5060179;28;20068;-48
2022/12/02 05:52:21;;;;;;;80.57;26.20;;;3.00;99.90;;;;;;5090640;28;20508;-47
2022/12/02 05:54:49;;;;;;;72.15;23.92;;;3.00;99.90;;;;;;5071412;28;20044;-47
2022/12/02 05:57:22;;;;;;;74.90;24.80;;;3.00;99.90;;;;;;5061981;28;20048;-50
2022/12/02 06:00:09;;;;;;;74.28;25.40;;;3.00;99.90;;;;;;5065481;28;20070;-48
2022/12/02 06:02:42;;;;;;;75.60;24.80;;;3.00;99.90;;;;;;5072736;28;20052;-47
2022/12/02 06:05:26;;;;;;;73.85;26.23;;;3.00;99.90;;;;;;5069783;28;20491;-47
2022/12/02 06:08:09;;;;;;;72.00;23.25;;;3.00;99.90;;;;;;5069878;28;20036;-48
2022/12/02 06:10:37;;;;;;;70.80;25.35;;;3.00;99.90;;;;;;5062640;28;20517;-48
2022/12/02 06:13:12;;;;;;;79.35;25.90;;;3.00;99.90;;;;;;5062155;28;20059;-49
2022/12/02 06:15:39;;;;;;;78.57;25.58;;;3.00;99.90;;;;;;5070820;28;20708;-48
2022/12/02 06:18:13;;;;;;;50.90;18.40;;;3.00;99.90;;;;;;5067822;28;20044;-48
2022/12/02 06:20:40;;;;;;;75.22;25.17;;;3.00;99.90;;;;;;5077980;28;20097;-48
2022/12/02 06:23:12;;;;;;;77.55;25.02;;;3.00;99.90;;;;;;5090382;28;20073;-49
2022/12/02 06:25:39;;;;;;;74.15;26.65;;;2.90;99.90;;;;;;5092014;28;20102;-49
2022/12/02 06:28:27;;;;;;;83.13;26.52;;;2.90;99.90;;;;;;5088612;28;20567;-48
2022/12/02 06:30:56;;;;;;;68.25;26.38;;;3.00;99.90;;;;;;5094090;28;20454;-47
2022/12/02 06:33:30;;;;;;;77.97;27.27;;;3.00;99.90;;;;;;5094268;28;20040;-49
2022/12/02 06:36:10;;;;;;;78.03;26.90;;;3.00;99.90;;;;;;5064367;28;20033;-48
2022/12/02 06:38:52;;;;;;;79.18;26.33;;;3.00;99.90;;;;;;5090822;28;20071;-50
2022/12/02 06:41:31;;;;;;;85.90;28.25;;;3.00;99.90;;;;;;5093570;28;20040;-48
2022/12/02 06:46:46;;;;;;;79.47;28.60;;;3.00;99.90;;;;;;5070439;28;20044;-48
2022/12/02 06:49:19;;;;;;;75.97;27.02;;;2.90;99.90;;;;;;5068729;28;20334;-48
2022/12/02 06:51:57;;;;;;;83.57;26.90;;;3.00;99.90;;;;;;5074011;28;20071;-50
2022/12/02 06:54:27;;;;;;;;;;;3.00;99.90;;;;;;5068266;28;20072;-49
2022/12/02 06:56:59;;;;;;;88.03;27.42;;;3.00;99.90;;;;;;5084844;28;19958;-46
2022/12/02 06:59:26;;;;;;;80.88;27.00;;;3.10;99.90;;;;;;5092869;28;20512;-48
2022/12/02 07:01:56;;;;;;;78.05;26.85;;;3.10;99.90;;;;;;5076321;28;20052;-49
2022/12/02 07:04:48;;;;;;;86.07;27.30;;;3.00;99.90;;;;;;5093376;28;20051;-50
2022/12/02 07:07:26;;;;;;;79.10;27.80;;;3.10;99.90;;;;;;5092874;28;20063;-47
2022/12/02 07:09:55;;;;;;;100.05;29.45;;;3.10;99.90;;;;;;5093267;28;20044;-47
2022/12/02 07:12:28;;;;;;;78.38;27.88;;;3.10;99.90;;;;;;5062086;28;20115;-47
2022/12/02 07:14:57;;;;;;;84.32;27.73;;;3.10;99.90;;;;;;5053780;28;20072;-47
2022/12/02 07:17:41;;;;;;;89.45;26.73;;;3.10;99.90;;;;;;5053810;28;20094;-50
2022/12/02 07:20:09;;;;;;;83.35;28.58;;;3.10;99.90;;;;;;5061255;28;20421;-47
2022/12/02 07:22:39;;;;;;;79.18;26.80;;;3.10;99.90;;;;;;5073290;28;20104;-47
2022/12/02 07:25:09;;;;;;;90.72;28.55;;;3.10;99.90;;;;;;5093696;28;20047;-47
2022/12/02 07:27:39;;;;;;;87.13;28.27;;;3.10;99.90;;;;;;5069998;28;20032;-47
2022/12/02 07:30:33;;;;;;;85.72;28.05;;;3.10;99.90;;;;;;5076367;28;20113;-48
2022/12/02 07:33:00;;;;;;;86.53;27.95;;;3.20;99.90;;;;;;5066009;28;20040;-47
2022/12/02 07:35:27;;;;;;;89.20;28.85;;;3.20;99.90;;;;;;5061887;28;20123;-48
2022/12/02 07:37:54;;;;;;;85.00;26.33;;;3.10;99.90;;;;;;5053373;28;20098;-48
2022/12/02 07:40:21;;;;;;;94.78;29.73;;;3.10;99.90;;;;;;5073328;28;20044;-49
2022/12/02 07:42:48;;;;;;;88.72;27.73;;;3.10;99.90;;;;;;5080118;28;20063;-48
2022/12/02 07:45:17;;;;;;;75.72;26.23;;;3.10;99.90;;;;;;5092164;28;20408;-48
2022/12/02 07:47:45;;;;;;;88.00;27.50;;;3.10;99.90;;;;;;5092339;28;20565;-49
2022/12/02 07:50:14;;;;;;;82.78;28.85;;;3.10;99.90;;;;;;5092928;28;20082;-48
2022/12/02 07:52:41;;;;;;;82.80;26.85;;;3.10;99.90;;;;;;5075824;28;20071;-48
2022/12/02 07:55:08;;;;;;;79.68;26.30;;;3.10;99.90;;;;;;5067296;28;20085;-47
2022/12/02 07:57:35;;;;;;;88.30;27.23;;;3.10;99.90;;;;;;5073004;28;20094;-48
2022/12/02 08:00:06;;;;;;;84.97;28.33;;;3.10;99.90;;;;;;5070098;28;20045;-52
2022/12/02 08:02:37;;;;;;;87.70;28.23;;;3.10;99.90;;;;;;5057845;28;20048;-47
2022/12/02 08:05:05;;;;;;;84.78;28.08;;;3.10;99.90;;;;;;5063193;28;20036;-48
2022/12/02 08:07:32;;;;;;;92.93;28.33;;;3.10;99.90;;;;;;5089651;28;20052;-51
2022/12/02 08:09:58;;;;;;;64.43;19.95;;;3.10;99.90;;;;;;5081690;28;20036;-48
2022/12/02 08:12:25;;;;;;;83.60;28.02;;;3.10;99.90;;;;;;5089936;28;20051;-47
2022/12/02 08:14:52;;;;;;;78.97;26.13;;;3.10;99.90;;;;;;5069402;28;20118;-49
2022/12/02 08:17:19;;;;;;;94.40;28.88;;;3.10;99.90;;;;;;5071786;28;20098;-49
2022/12/02 08:19:46;;;;;;;65.40;21.05;;;3.20;99.90;;;;;;5060565;28;20505;-49
2022/12/02 08:22:13;;;;;;;89.25;27.77;;;3.10;99.90;;;;;;5069598;28;20044;-49
2022/12/02 08:24:39;;;;;;;96.55;28.73;;;3.10;99.90;;;;;;5070830;28;20556;-48
2022/12/02 08:27:06;;;;;;;83.03;28.42;;;3.10;99.90;;;;;;5083417;28;20097;-47
2022/12/02 08:29:33;;;;;;;89.20;28.45;;;3.10;99.90;;;;;;5091729;28;20048;-48
2022/12/02 08:32:00;;;;;;;83.60;27.80;;;3.10;99.90;;;;;;5091755;28;20036;-47
2022/12/02 08:34:27;;;;;;;90.95;29.70;;;3.10;99.90;;;;;;5068109;28;20520;-47
2022/12/02 08:36:54;;;;;;;82.40;27.88;;;3.10;99.90;;;;;;5063926;28;20087;-47
2022/12/02 08:39:20;;;;;;;85.25;28.10;;;3.00;99.90;;;;;;5071958;28;20493;-48
2022/12/02 08:41:47;;;;;;;88.43;28.00;;;3.00;99.90;;;;;;5071427;28;20052;-47
2022/12/02 08:44:14;;;;;;;99.25;29.58;;;3.00;99.90;;;;;;5060531;28;20041;-47
2022/12/02 08:46:41;;;;;;;84.57;28.23;;;2.90;99.90;;;;;;5074979;28;20086;-48
2022/12/02 08:49:08;;;;;;;84.38;27.95;;;3.00;99.90;;;;;;5091771;28;20040;-47
2022/12/02 08:51:35;;;;;;;94.32;31.25;;;3.00;99.90;;;;;;5084728;28;20431;-47
2022/12/02 08:54:01;;;;;;;87.05;29.70;;;3.00;99.90;;;;;;5090572;28;20071;-48
2022/12/02 08:56:28;;;;;;;91.70;28.58;;;3.00;99.90;;;;;;5090669;28;20044;-48
2022/12/02 08:58:55;;;;;;;97.05;30.77;;;3.00;99.90;;;;;;5091279;28;20067;-49
2022/12/02 09:01:22;;;;;;;95.00;28.73;;;3.00;99.90;;;;;;5076739;28;20067;-48
2022/12/02 09:03:49;;;;;;;94.90;30.27;;;3.00;99.90;;;;;;5091529;28;20036;-48
2022/12/02 09:06:15;;;;;;;88.30;28.13;;;3.00;99.90;;;;;;5091265;28;20040;-50
2022/12/02 09:08:42;;;;;;;97.65;30.15;;;3.00;99.90;;;;;;5086445;28;20052;-48
2022/12/02 09:11:09;;;;;;;89.00;28.88;;;3.00;99.90;;;;;;5057934;28;20157;-48
2022/12/02 09:13:36;;;;;;;95.40;29.20;;;3.00;99.90;;;;;;5069169;28;20119;-48
2022/12/02 09:16:03;;;;;;;94.90;28.75;;;2.90;99.90;;;;;;5071348;28;20044;-48
2022/12/02 09:18:29;;;;;;;88.00;28.30;;;2.90;99.90;;;;;;5076450;28;20043;-49
2022/12/02 09:20:56;;;;;;;58.80;19.98;;;2.90;99.90;;;;;;5091411;28;20466;-48
2022/12/02 09:23:23;;;;;;;60.42;21.58;;;2.90;99.90;;;;;;5090675;28;20075;-48
2022/12/02 09:25:50;;;;;;;69.75;20.73;;;2.90;99.90;;;;;;5087709;28;20044;-48
2022/12/02 09:28:16;;;;;;;95.20;27.88;;;2.90;99.90;;;;;;5081757;28;20062;-48
2022/12/02 09:30:43;;;;;;;107.75;29.40;;;2.90;99.90;;;;;;5090920;28;20113;-48
2022/12/02 09:33:10;;;;;;;92.10;29.67;;;2.90;99.90;;;;;;5090941;28;20059;-48
2022/12/02 09:35:37;;;;;;;94.30;29.35;;;2.90;99.90;;;;;;5087193;28;20101;-48
2022/12/02 09:38:05;;;;;;;92.53;29.35;;;2.90;99.90;;;;;;5089416;28;20395;-49
2022/12/02 09:40:33;;;;;;;91.18;27.77;;;2.90;99.90;;;;;;5089643;28;20085;-47
2022/12/02 09:43:00;;;;;;;;;;;2.90;99.90;;;;;;5088434;28;20087;-48
2022/12/02 09:45:27;;;;;;;88.10;27.58;;;2.90;99.90;;;;;;5059360;28;20411;-47
2022/12/02 09:47:54;;;;;;;82.85;28.48;;;2.90;99.90;;;;;;5071374;28;20446;-47
2022/12/02 09:50:21;;;;;;;90.70;27.92;;;2.90;99.90;;;;;;5070702;28;20040;-48
2022/12/02 09:52:49;;;;;;;88.50;29.83;;;2.90;99.90;;;;;;5068058;28;20068;-48
2022/12/02 09:55:18;;;;;;;96.43;29.70;;;2.90;99.90;;;;;;5053041;28;20166;-48
2022/12/02 09:57:45;;;;;;;91.97;29.20;;;2.80;99.90;;;;;;5050967;28;20037;-47
2022/12/02 10:00:18;;;;;;;87.57;28.85;;;2.80;99.90;;;;;;5073623;28;20090;-48
2022/12/02 10:02:48;;;;;;;101.00;28.92;;;2.80;99.90;;;;;;5094281;28;20067;-49
2022/12/02 10:05:16;;;;;;;105.10;29.65;;;2.90;99.90;;;;;;5094216;28;20079;-48
2022/12/02 10:07:45;;;;;;;101.18;29.35;;;2.90;99.90;;;;;;5094743;28;20062;-48
2022/12/02 10:10:15;;;;;;;86.15;28.63;;;3.00;99.90;;;;;;5066864;28;20068;-48
2022/12/02 10:12:41;;;;;;;95.18;28.60;;;3.00;99.90;;;;;;5073120;28;20036;-48
2022/12/02 10:15:12;;;;;;;66.45;21.88;;;3.10;99.90;;;;;;5074735;28;20048;-48
2022/12/02 10:17:39;;;;;;;85.47;26.75;;;3.10;99.90;;;;;;5070054;28;20076;-48
2022/12/02 10:20:07;;;;;;;80.10;27.20;;;3.20;99.90;;;;;;5071862;28;20040;-48
2022/12/02 10:23:11;;;;;;;80.97;27.50;;;3.20;99.90;;;;;;5094276;28;20420;-50
2022/12/02 10:25:41;;;;;;;79.82;27.60;;;3.20;99.90;;;;;;5094052;28;20075;-48
2022/12/02 10:28:32;;;;;;;67.10;25.10;;;3.30;99.90;;;;;;5089288;28;20083;-48
2022/12/02 10:31:12;;;;;;;73.53;25.23;;;3.20;99.90;;;;;;5062280;28;20037;-48
2022/12/02 10:33:49;;;;;;;77.03;25.35;;;3.20;99.90;;;;;;5054038;28;20107;-47
2022/12/02 10:36:39;;;;;;;73.97;25.05;;;3.20;99.90;;;;;;5054194;28;20037;-48
2022/12/02 10:39:19;;;;;;;80.78;26.75;;;3.20;99.90;;;;;;5059365;28;20390;-48
2022/12/02 10:41:47;;;;;;;79.97;27.83;;;3.20;99.90;;;;;;5060489;28;20091;-48
2022/12/02 10:44:21;;;;;;;65.13;25.15;;;3.20;99.90;;;;;;5053810;28;20072;-48
2022/12/02 10:46:47;;;;;;;76.80;25.88;;;3.10;99.90;;;;;;5052863;28;20052;-48
2022/12/02 10:52:56;;;;;;;70.82;24.35;;;3.10;99.90;;;;;;5098785;28;20074;-46
2022/12/02 10:55:23;;;;;;;71.53;23.48;;;3.10;99.90;;;;;;5094284;28;20044;-47
2022/12/02 10:57:50;;;;;;;73.20;24.20;;;3.10;99.90;;;;;;5090827;28;20110;-48
2022/12/02 11:00:20;;;;;;;73.85;24.75;;;3.10;99.90;;;;;;5097017;28;20097;-47
2022/12/02 11:02:54;;;;;;;66.28;23.75;;;3.10;99.90;;;;;;5086676;28;20041;-47
2022/12/02 11:05:30;;;;;;;68.18;23.77;;;3.10;99.90;;;;;;5089414;28;20040;-46
2022/12/02 11:08:04;;;;;;;65.80;22.50;;;3.10;99.90;;;;;;5073008;28;20040;-46
2022/12/02 11:10:37;;;;;;;70.07;23.73;;;3.20;99.90;;;;;;5071963;28;20071;-46
2022/12/02 11:13:45;;;;;;;68.65;23.38;;;3.20;99.90;;;;;;5076906;28;20366;-46
2022/12/02 11:16:26;;;;;;;;;;;3.20;99.90;;;;;;5092146;28;20040;-46
2022/12/02 11:19:02;;;;;;;;;;;3.10;99.90;;;;;;5093633;28;19934;-50
2022/12/02 11:21:28;;;;;;;54.63;20.63;;;3.10;99.90;;;;;;5078795;28;19924;-46
2022/12/02 11:24:23;;;;;;;46.40;16.92;;;3.20;99.90;;;;;;5093089;28;20393;-47
2022/12/02 11:26:59;;;;;;;59.47;21.70;;;3.20;99.90;;;;;;5088992;28;20093;-47
2022/12/02 11:29:28;;;;;;;60.75;20.65;;;3.10;99.90;;;;;;5081919;28;20044;-48
2022/12/02 11:32:20;;;;;;;58.72;21.65;;;3.10;99.90;;;;;;5096352;28;20123;-46
2022/12/02 11:34:55;;;;;;;55.03;21.98;;;3.10;99.90;;;;;;5104462;28;20032;-46
2022/12/02 11:37:44;;;;;;;60.15;20.77;;;3.10;99.90;;;;;;5075751;28;20135;-47
2022/12/02 11:40:10;;;;;;;54.28;20.08;;;3.10;99.90;;;;;;5106269;28;20048;-46
2022/12/02 11:42:39;;;;;;;71.55;22.85;;;3.20;99.90;;;;;;5112641;28;20063;-46
2022/12/02 11:45:14;;;;;;;61.13;21.85;;;3.10;99.90;;;;;;5109525;28;20670;-47
2022/12/02 11:47:56;;;;;;;66.68;22.35;;;3.20;99.90;;;;;;5101709;28;20059;-46
2022/12/02 11:50:31;;;;;;;63.00;22.27;;;3.20;99.90;;;;;;5089538;28;20043;-46
2022/12/02 11:53:12;;;;;;;66.63;21.88;;;3.30;99.90;;;;;;5090865;28;20040;-46
2022/12/02 11:55:42;;;;;;;68.63;23.48;;;3.20;99.90;;;;;;5087240;28;20035;-46
2022/12/02 11:58:31;;;;;;;74.70;24.25;;;3.30;99.90;;;;;;5082964;28;20080;-47
2022/12/02 12:01:01;;;;;;;;;;;3.30;99.90;;;;;;5098696;28;20097;-46
2022/12/02 12:03:28;;;;;;;63.58;22.65;;;3.40;99.90;;;;;;5088118;28;19966;-46
2022/12/02 12:06:06;;;;;;;68.05;23.15;;;3.50;99.90;;;;;;5092611;28;20084;-46
2022/12/02 12:08:33;;;;;;;50.60;16.98;;;3.40;99.90;;;;;;5066666;28;20064;-46
2022/12/02 12:11:17;;;;;;;69.25;22.63;;;3.40;99.90;;;;;;5085517;28;20525;-48
2022/12/02 12:14:01;;;;;;;63.72;22.80;;;3.50;99.90;;;;;;5090675;28;20480;-46
2022/12/02 12:16:33;;;;;;;60.28;21.70;;;3.50;99.90;;;;;;5092522;28;20078;-46
2022/12/02 12:19:25;;;;;;;58.72;22.00;;;3.60;99.90;;;;;;5087998;28;20043;-46
2022/12/02 12:21:56;;;;;;;58.35;22.63;;;3.70;99.90;;;;;;5082085;28;20158;-46
2022/12/02 12:24:24;;;;;;;60.35;21.38;;;3.60;99.90;;;;;;5065129;28;20070;-46
2022/12/02 12:27:10;;;;;;;66.63;21.88;;;3.70;99.90;;;;;;5088199;28;20044;-46
2022/12/02 12:29:38;;;;;;;60.40;21.52;;;3.70;99.90;;;;;;5090710;28;20032;-46
2022/12/02 12:32:07;;;;;;;65.65;23.27;;;3.80;99.90;;;;;;5086094;28;20044;-46
2022/12/02 12:34:34;;;;;;;67.35;23.98;;;3.90;99.90;;;;;;5091528;28;20032;-48
2022/12/02 12:37:01;;;;;;;;;;;4.00;99.90;;;;;;5087706;28;20029;-47
2022/12/02 12:39:28;;;;;;;68.70;22.70;;;4.20;99.90;;;;;;5091097;28;19973;-47
2022/12/02 12:41:54;;;;;;;62.97;20.95;;;4.40;99.90;;;;;;5077725;28;20559;-47
2022/12/02 12:44:27;;;;;;;64.53;21.67;;;4.70;99.90;;;;;;5086606;28;20050;-46
2022/12/02 12:47:02;;;;;;;56.03;19.15;;;5.00;99.90;;;;;;5091759;28;20047;-47
2022/12/02 12:49:30;;;;;;;54.85;18.95;;;5.40;99.90;;;;;;5088527;28;20499;-46
2022/12/02 12:51:57;;;;;;;52.92;20.50;;;5.60;99.90;;;;;;5075653;28;20117;-47
2022/12/02 12:54:23;;;;;;;56.38;20.98;;;5.70;99.90;;;;;;5084177;28;20068;-48
2022/12/02 12:56:50;;;;;;;54.97;19.60;;;5.60;99.90;;;;;;5087869;28;20093;-47
2022/12/02 12:59:17;;;;;;;59.20;19.60;;;5.60;99.90;;;;;;5088353;28;20089;-47
2022/12/02 13:01:44;;;;;;;48.47;18.83;;;5.40;99.90;;;;;;5085839;28;20047;-47
2022/12/02 13:04:11;;;;;;;59.13;22.00;;;5.20;99.90;;;;;;5082479;28;20040;-47
2022/12/02 13:06:38;;;;;;;;;;;5.10;99.90;;;;;;5088464;28;20377;-47
2022/12/02 13:09:10;;;;;;;51.03;18.27;;;5.00;99.90;;;;;;5088303;28;20419;-47
2022/12/02 13:11:38;;;;;;;46.10;17.85;;;5.00;99.90;;;;;;5083394;28;20723;-46